Time;durP1;ratioP1;P1;durP2;ratioP2;P2;SDS_P1;SDS_P2;PMS_P1;PMS_P2;Temp;Humidity;BMP_temperature;BMP_pressure;BME280_temperature;BME280_humidity;BME280_pressure;Samples;Min_cycle;Max_cycle;Signal;HPM_P1;HPM_P2
2023/04/13 00:00:38;;;;;;;5.80;4.15;;;20.50;64.40;;;;;;4985065;28;93553;-90
2023/04/13 00:03:04;;;;;;;6.88;3.22;;;20.50;64.50;;;;;;4991961;28;93420;-88
2023/04/13 00:05:33;;;;;;;6.13;3.35;;;20.50;64.50;;;;;;4958294;28;92393;-89
2023/04/13 00:08:01;;;;;;;6.20;3.63;;;20.50;64.50;;;;;;4995163;28;92802;-89
2023/04/13 00:10:30;;;;;;;7.30;3.33;;;20.50;64.40;;;;;;4933240;28;92766;-88
2023/04/13 00:13:00;;;;;;;5.00;3.35;;;20.50;64.30;;;;;;4932969;28;92141;-88
2023/04/13 00:15:26;;;;;;;5.88;3.40;;;20.50;64.20;;;;;;4930124;28;92134;-90
2023/04/13 00:17:52;;;;;;;5.63;3.40;;;20.50;64.20;;;;;;4921899;28;95147;-89
2023/04/13 00:20:18;;;;;;;6.50;4.20;;;20.50;64.10;;;;;;4913196;28;94404;-88
2023/04/13 00:22:46;;;;;;;5.00;3.20;;;20.50;64.20;;;;;;4912785;28;92898;-88
2023/04/13 00:25:15;;;;;;;6.20;3.58;;;20.40;64.10;;;;;;4915204;28;93077;-89
2023/04/13 00:27:42;;;;;;;6.43;3.38;;;20.40;64.10;;;;;;4931528;28;100195;-91
2023/04/13 00:30:15;;;;;;;4.70;3.30;;;20.40;64.00;;;;;;4932435;28;95403;-90
2023/04/13 00:32:42;;;;;;;4.63;2.85;;;20.40;64.00;;;;;;4916810;28;92445;-90
2023/04/13 00:35:17;;;;;;;4.97;3.20;;;20.40;64.10;;;;;;4932593;28;92312;-90
2023/04/13 00:37:45;;;;;;;5.43;3.22;;;20.40;64.00;;;;;;4934195;28;94144;-88
2023/04/13 00:40:12;;;;;;;6.40;3.38;;;20.40;63.90;;;;;;4931554;28;93950;-88
2023/04/13 00:42:37;;;;;;;5.22;3.45;;;20.40;64.00;;;;;;4984835;28;92478;-88
2023/04/13 00:45:03;;;;;;;7.28;3.95;;;20.40;64.30;;;;;;4977608;28;91899;-90
2023/04/13 00:47:35;;;;;;;4.63;2.72;;;20.40;64.20;;;;;;4983056;28;95596;-88
2023/04/13 00:50:21;;;;;;;5.60;3.38;;;20.30;64.00;;;;;;4957314;28;92504;-87
2023/04/13 00:52:47;;;;;;;4.90;3.15;;;20.30;64.20;;;;;;4948441;28;93545;-87
2023/04/13 00:55:13;;;;;;;5.45;3.00;;;20.30;64.30;;;;;;4957086;28;93292;-90
2023/04/13 00:57:40;;;;;;;5.90;3.40;;;20.30;64.10;;;;;;4940392;28;100749;-89
2023/04/13 01:00:08;;;;;;;5.57;2.85;;;20.30;64.30;;;;;;4958262;28;92584;-88
2023/04/13 01:02:34;;;;;;;5.00;3.10;;;20.30;64.40;;;;;;4917969;28;92505;-89
2023/04/13 01:05:01;;;;;;;4.95;3.03;;;20.30;64.20;;;;;;4916426;28;92999;-89
2023/04/13 01:07:31;;;;;;;7.70;3.22;;;20.30;64.00;;;;;;4900245;28;93664;-89
2023/04/13 01:10:18;;;;;;;5.93;2.83;;;20.30;64.10;;;;;;4909684;28;92375;-89
2023/04/13 01:13:15;;;;;;;5.05;3.28;;;20.20;64.00;;;;;;4909930;28;91939;-89
2023/04/13 01:15:51;;;;;;;5.55;3.58;;;20.20;63.90;;;;;;4835993;29;93041;-89
2023/04/13 01:18:19;;;;;;;5.90;3.05;;;20.20;64.00;;;;;;4822294;29;94970;-88
2023/04/13 01:20:46;;;;;;;5.38;2.97;;;20.20;64.10;;;;;;4807534;29;97556;-89
2023/04/13 01:23:48;;;;;;;5.30;2.78;;;20.20;64.00;;;;;;4779070;29;92166;-89
2023/04/13 01:26:16;;;;;;;4.65;2.90;;;20.20;64.00;;;;;;4767095;29;93110;-88
2023/04/13 01:28:42;;;;;;;4.65;3.08;;;20.20;64.10;;;;;;4777322;29;96402;-87
2023/04/13 01:31:11;;;;;;;4.93;2.90;;;20.20;64.00;;;;;;4778926;29;96344;-90
2023/04/13 01:33:40;;;;;;;5.13;2.80;;;20.20;64.00;;;;;;4786131;29;91979;-88
2023/04/13 01:36:08;;;;;;;6.20;3.22;;;20.20;64.20;;;;;;4784956;29;91300;-89
2023/04/13 01:38:34;;;;;;;6.25;3.50;;;20.20;64.20;;;;;;4783681;29;93051;-88
2023/04/13 01:41:00;;;;;;;4.65;2.65;;;20.20;64.10;;;;;;4827384;29;93630;-88
2023/04/13 01:43:26;;;;;;;3.60;2.65;;;20.20;64.20;;;;;;4841513;29;93416;-89
2023/04/13 01:46:04;;;;;;;4.70;2.90;;;20.20;64.20;;;;;;4852538;28;93072;-92
2023/04/13 01:48:44;;;;;;;6.10;3.15;;;20.10;64.10;;;;;;4919205;28;94424;-88
2023/04/13 01:51:21;;;;;;;5.18;3.00;;;20.10;64.20;;;;;;4920074;28;92585;-91
2023/04/13 01:53:55;;;;;;;5.47;2.63;;;20.10;64.20;;;;;;4922566;28;92672;-89
2023/04/13 01:56:25;;;;;;;3.85;2.63;;;20.10;64.20;;;;;;4914503;28;92197;-88
2023/04/13 01:58:57;;;;;;;5.40;2.70;;;20.10;64.00;;;;;;4895893;28;93868;-88
2023/04/13 02:01:24;;;;;;;4.82;2.90;;;20.10;64.20;;;;;;4892683;28;93554;-86
2023/04/13 02:03:50;;;;;;;4.90;2.80;;;20.10;64.20;;;;;;4906192;28;92923;-89
2023/04/13 02:06:15;;;;;;;4.68;2.70;;;20.10;64.10;;;;;;4913776;28;92670;-88
2023/04/13 02:08:41;;;;;;;4.15;2.70;;;20.10;64.20;;;;;;4920751;28;97341;-87
2023/04/13 02:11:07;;;;;;;3.28;2.22;;;20.10;64.20;;;;;;4948433;28;95097;-90
2023/04/13 02:13:33;;;;;;;4.70;2.33;;;20.10;64.10;;;;;;4954835;28;92310;-88
2023/04/13 02:15:59;;;;;;;4.57;2.92;;;20.00;63.90;;;;;;4958930;28;92156;-89
2023/04/13 02:18:25;;;;;;;5.38;3.15;;;20.10;64.20;;;;;;4957073;28;95171;-87
2023/04/13 02:21:08;;;;;;;3.15;2.20;;;20.10;64.10;;;;;;4958430;28;96157;-89
2023/04/13 02:23:35;;;;;;;4.03;2.13;;;20.10;63.90;;;;;;4976018;28;92810;-87
2023/04/13 02:26:01;;;;;;;4.45;2.67;;;20.10;64.00;;;;;;4975108;28;91789;-87
2023/04/13 02:28:28;;;;;;;4.07;2.60;;;20.10;64.10;;;;;;4953842;28;94035;-87
2023/04/13 02:30:54;;;;;;;4.78;2.70;;;20.10;64.10;;;;;;4966656;28;94558;-87
2023/04/13 02:33:20;;;;;;;5.13;2.67;;;20.00;64.00;;;;;;4997489;28;93607;-88
2023/04/13 02:35:49;;;;;;;4.65;2.90;;;20.00;64.10;;;;;;4978997;28;92711;-87
2023/04/13 02:38:15;;;;;;;3.92;2.42;;;20.00;64.20;;;;;;4995372;28;94547;-89
2023/04/13 02:40:42;;;;;;;4.65;2.65;;;20.00;64.20;;;;;;4994067;28;93830;-89
2023/04/13 02:43:09;;;;;;;3.80;2.63;;;20.00;64.20;;;;;;4980453;28;92629;-89
2023/04/13 02:45:35;;;;;;;3.85;2.33;;;20.00;64.20;;;;;;4992733;28;92703;-87
2023/04/13 02:48:01;;;;;;;3.90;2.42;;;20.00;64.20;;;;;;4993073;28;94725;-88
2023/04/13 02:50:26;;;;;;;3.42;2.30;;;20.00;64.10;;;;;;4977729;28;93579;-88
2023/04/13 02:52:53;;;;;;;3.20;2.13;;;20.00;64.20;;;;;;4991009;28;92657;-88
2023/04/13 02:55:19;;;;;;;3.20;2.30;;;20.00;64.20;;;;;;4995862;28;92906;-89
2023/04/13 02:57:44;;;;;;;3.42;2.33;;;20.00;63.90;;;;;;4952493;28;94633;-88
2023/04/13 03:00:10;;;;;;;5.57;2.80;;;20.00;64.00;;;;;;4948566;28;97112;-89
2023/04/13 03:02:36;;;;;;;4.07;2.28;;;20.00;64.10;;;;;;4944360;28;92915;-89
2023/04/13 03:05:06;;;;;;;3.35;2.17;;;20.00;64.10;;;;;;4917863;28;92283;-89
2023/04/13 03:07:34;;;;;;;4.53;2.28;;;20.00;64.00;;;;;;4911943;28;93969;-87
2023/04/13 03:10:21;;;;;;;3.63;2.15;;;20.00;64.10;;;;;;4934161;28;94845;-88
2023/04/13 03:12:47;;;;;;;3.53;2.28;;;20.00;64.10;;;;;;4898980;28;92364;-88
2023/04/13 03:15:13;;;;;;;4.15;2.35;;;19.90;64.00;;;;;;4867948;28;91895;-89
2023/04/13 03:17:40;;;;;;;3.97;2.22;;;19.90;63.90;;;;;;4867464;28;96128;-87
2023/04/13 03:20:14;;;;;;;4.55;2.50;;;19.90;63.90;;;;;;4866078;28;95119;-88
2023/04/13 03:22:40;;;;;;;4.63;2.50;;;19.90;63.90;;;;;;4854900;28;93472;-88
2023/04/13 03:25:07;;;;;;;4.03;2.30;;;19.90;64.00;;;;;;4869917;28;92814;-89
2023/04/13 03:27:33;;;;;;;2.92;1.88;;;19.90;63.90;;;;;;4859014;28;94922;-87
2023/04/13 03:30:06;;;;;;;3.28;2.28;;;19.90;63.90;;;;;;4894428;28;94049;-91
2023/04/13 03:32:31;;;;;;;3.92;2.50;;;19.90;63.90;;;;;;4880272;28;92422;-90
2023/04/13 03:34:57;;;;;;;3.95;2.47;;;19.90;64.20;;;;;;4896910;28;92686;-87
2023/04/13 03:37:28;;;;;;;4.88;2.45;;;19.90;63.90;;;;;;4888683;28;95005;-89
2023/04/13 03:39:54;;;;;;;2.60;2.05;;;19.80;64.00;;;;;;4889247;28;93318;-88
2023/04/13 03:42:20;;;;;;;3.67;2.25;;;19.90;64.00;;;;;;4888547;28;92799;-88
2023/04/13 03:44:45;;;;;;;4.00;2.33;;;19.90;63.90;;;;;;4895635;28;92409;-86
2023/04/13 03:47:11;;;;;;;3.00;2.20;;;19.80;63.90;;;;;;4896840;28;97370;-91
2023/04/13 03:49:37;;;;;;;3.17;2.30;;;19.80;63.80;;;;;;4889463;28;96423;-91
2023/04/13 03:52:02;;;;;;;3.78;2.10;;;19.80;63.90;;;;;;4903987;28;92656;-89
2023/04/13 03:54:28;;;;;;;2.83;2.13;;;19.80;63.70;;;;;;4883394;28;92643;-90
2023/04/13 03:56:55;;;;;;;4.07;2.10;;;19.80;63.90;;;;;;4886584;28;94313;-86
2023/04/13 03:59:21;;;;;;;2.53;1.65;;;19.80;63.80;;;;;;4893100;28;96341;-88
2023/04/13 04:01:46;;;;;;;2.95;1.90;;;19.80;63.80;;;;;;4901123;28;92627;-88
2023/04/13 04:04:12;;;;;;;3.35;2.25;;;19.80;63.90;;;;;;4935654;28;93102;-88
2023/04/13 04:06:38;;;;;;;4.00;2.00;;;19.80;63.90;;;;;;4923082;28;94002;-90
2023/04/13 04:09:03;;;;;;;2.80;1.90;;;19.80;63.80;;;;;;4925061;28;93060;-89
2023/04/13 04:11:29;;;;;;;2.28;2.00;;;19.80;63.90;;;;;;4926648;28;93216;-90
2023/04/13 04:13:55;;;;;;;3.67;2.33;;;19.80;64.00;;;;;;4930596;28;92865;-87
2023/04/13 04:16:20;;;;;;;3.53;2.30;;;19.80;64.00;;;;;;4945221;28;93747;-87
2023/04/13 04:18:46;;;;;;;2.55;1.80;;;19.70;63.90;;;;;;4945877;28;93892;-88
2023/04/13 04:21:12;;;;;;;4.40;2.25;;;19.70;63.90;;;;;;4945061;28;92169;-89
2023/04/13 04:23:38;;;;;;;3.78;2.10;;;19.70;64.00;;;;;;4933938;28;92751;-88
2023/04/13 04:26:05;;;;;;;2.72;1.75;;;19.70;63.80;;;;;;4955532;28;93132;-89
2023/04/13 04:28:37;;;;;;;3.30;2.25;;;19.70;63.90;;;;;;4952112;28;94229;-89
2023/04/13 04:31:09;;;;;;;3.35;2.35;;;19.70;63.90;;;;;;4935116;28;93367;-88
2023/04/13 04:33:37;;;;;;;3.20;2.13;;;19.70;64.00;;;;;;4952731;28;92465;-88
2023/04/13 04:36:08;;;;;;;3.15;2.08;;;19.70;64.00;;;;;;4929619;28;95077;-89
2023/04/13 04:38:34;;;;;;;3.17;2.08;;;19.70;64.20;;;;;;4950819;28;94465;-89
2023/04/13 04:41:00;;;;;;;2.72;1.85;;;19.60;64.00;;;;;;4935019;28;92994;-87
2023/04/13 04:43:28;;;;;;;3.72;1.98;;;19.70;64.10;;;;;;4946896;28;92829;-88
2023/04/13 04:45:56;;;;;;;3.08;2.20;;;19.70;63.90;;;;;;4936573;28;95824;-90
2023/04/13 04:48:25;;;;;;;3.22;2.00;;;19.60;64.00;;;;;;4945393;28;93467;-91
2023/04/13 04:50:54;;;;;;;3.28;2.08;;;19.70;63.80;;;;;;4975391;28;92100;-88
2023/04/13 04:53:21;;;;;;;3.38;2.05;;;19.60;63.80;;;;;;4975045;28;91449;-89
2023/04/13 04:55:46;;;;;;;3.35;2.03;;;19.70;63.80;;;;;;4992031;28;94197;-88
2023/04/13 04:58:12;;;;;;;2.88;1.90;;;19.60;63.80;;;;;;4975209;28;92545;-90
2023/04/13 05:00:37;;;;;;;3.22;1.85;;;19.60;63.90;;;;;;4941329;28;93504;-90
2023/04/13 05:03:03;;;;;;;3.30;1.95;;;19.70;64.00;;;;;;4939937;28;92938;-88
2023/04/13 05:05:29;;;;;;;2.53;1.83;;;19.60;63.80;;;;;;4925297;28;95198;-88
2023/04/13 05:07:55;;;;;;;3.90;2.58;;;19.60;64.00;;;;;;4926359;28;94116;-89
2023/04/13 05:10:23;;;;;;;3.50;2.03;;;19.60;63.90;;;;;;4922281;28;92398;-88
2023/04/13 05:12:49;;;;;;;3.20;1.90;;;19.60;64.00;;;;;;4923907;28;92016;-89
2023/04/13 05:15:15;;;;;;;3.13;2.00;;;19.60;64.00;;;;;;4924045;28;93818;-89
2023/04/13 05:17:45;;;;;;;3.00;2.08;;;19.60;64.00;;;;;;4929262;28;92646;-89
2023/04/13 05:20:12;;;;;;;2.92;1.85;;;19.60;63.90;;;;;;4925853;28;93011;-90
2023/04/13 05:22:38;;;;;;;2.50;1.70;;;19.60;63.70;;;;;;4919007;28;92300;-88
2023/04/13 05:25:05;;;;;;;2.53;1.65;;;19.60;63.70;;;;;;4907583;28;94238;-89
2023/04/13 05:27:31;;;;;;;2.70;1.70;;;19.70;63.80;;;;;;4884694;28;96359;-88
2023/04/13 05:29:57;;;;;;;2.75;2.00;;;19.70;63.70;;;;;;4883115;28;92623;-88
2023/04/13 05:32:22;;;;;;;2.38;1.60;;;19.70;63.40;;;;;;4895452;28;93267;-90
2023/04/13 05:34:49;;;;;;;2.47;1.88;;;19.80;63.30;;;;;;4898834;28;94812;-88
2023/04/13 05:37:14;;;;;;;3.10;1.88;;;19.80;63.20;;;;;;4898296;28;94336;-88
2023/04/13 05:39:40;;;;;;;2.88;1.58;;;19.80;63.10;;;;;;4897407;28;93064;-87
2023/04/13 05:42:26;;;;;;;2.53;1.80;;;19.90;62.80;;;;;;4879374;28;92006;-90
2023/04/13 05:44:51;;;;;;;3.38;1.70;;;19.90;62.90;;;;;;4877838;28;96108;-88
2023/04/13 05:47:21;;;;;;;1.90;1.48;;;19.90;62.80;;;;;;4862553;28;93670;-87
2023/04/13 05:49:47;;;;;;;2.15;1.48;;;19.90;62.50;;;;;;4879010;28;93641;-89
2023/04/13 05:52:12;;;;;;;2.45;1.80;;;19.90;62.50;;;;;;4879743;28;93069;-88
2023/04/13 05:54:38;;;;;;;1.88;1.38;;;19.90;62.50;;;;;;4876516;28;96637;-89
2023/04/13 05:57:04;;;;;;;3.08;1.55;;;19.90;62.60;;;;;;4871142;28;96242;-89
2023/04/13 05:59:30;;;;;;;2.88;1.60;;;19.90;62.60;;;;;;4899522;28;92801;-90
2023/04/13 06:01:56;;;;;;;2.58;1.77;;;19.90;62.70;;;;;;4876205;28;92468;-91
2023/04/13 06:04:21;;;;;;;2.67;1.73;;;19.80;63.10;;;;;;4928667;28;95011;-91
2023/04/13 06:06:47;;;;;;;2.72;1.52;;;19.90;62.50;;;;;;4933892;28;94923;-89
2023/04/13 06:09:13;;;;;;;3.55;1.75;;;19.90;62.10;;;;;;4890679;28;92510;-86
2023/04/13 06:11:39;;;;;;;4.97;2.03;;;20.00;61.90;;;;;;4871303;28;92168;-88
2023/04/13 06:14:05;;;;;;;4.40;1.90;;;20.10;62.20;;;;;;4898826;28;96541;-91
2023/04/13 06:16:30;;;;;;;2.80;1.50;;;20.10;62.20;;;;;;4860129;28;94673;-88
2023/04/13 06:18:57;;;;;;;5.00;2.47;;;20.10;62.70;;;;;;4866075;28;92543;-89
2023/04/13 06:21:24;;;;;;;3.83;1.98;;;20.20;60.20;;;;;;4882500;28;92330;-91
2023/04/13 06:23:50;;;;;;;4.93;2.10;;;20.30;59.00;;;;;;4881729;28;94654;-89
2023/04/13 06:26:16;;;;;;;9.30;2.50;;;20.30;60.30;;;;;;4894772;28;93857;-90
2023/04/13 06:28:42;;;;;;;3.97;1.80;;;20.40;61.10;;;;;;4897533;28;92257;-89
2023/04/13 06:31:09;;;;;;;3.63;2.10;;;20.50;61.50;;;;;;4875951;28;91861;-90
2023/04/13 06:33:34;;;;;;;5.20;2.20;;;20.50;61.90;;;;;;4860678;28;93575;-88
2023/04/13 06:36:00;;;;;;;4.28;2.10;;;20.50;62.00;;;;;;4852266;29;95046;-91
2023/04/13 06:38:26;;;;;;;3.38;2.17;;;20.50;61.90;;;;;;4855689;28;93484;-88
2023/04/13 06:40:52;;;;;;;6.95;2.20;;;20.50;62.20;;;;;;4883138;28;92341;-92
2023/04/13 06:43:17;;;;;;;5.32;2.50;;;20.40;62.60;;;;;;4887491;28;96020;-92
2023/04/13 06:45:44;;;;;;;5.50;1.83;;;20.40;62.80;;;;;;4855044;29;95342;-88
2023/04/13 06:48:11;;;;;;;5.32;2.05;;;20.40;62.40;;;;;;4864512;28;92666;-88
2023/04/13 06:50:36;;;;;;;4.60;2.00;;;20.40;62.70;;;;;;4817164;29;92516;-88
2023/04/13 06:53:02;;;;;;;3.78;2.08;;;20.30;63.80;;;;;;4820532;29;95648;-88
2023/04/13 06:55:28;;;;;;;4.07;1.77;;;20.20;63.40;;;;;;4822561;29;93540;-88
2023/04/13 06:57:54;;;;;;;6.35;2.17;;;20.10;63.30;;;;;;4821877;29;92334;-88
2023/04/13 07:00:20;;;;;;;4.05;1.95;;;20.20;62.90;;;;;;4808078;29;92180;-89
2023/04/13 07:02:46;;;;;;;5.05;2.05;;;20.20;63.50;;;;;;4801191;29;96697;-87
2023/04/13 07:05:11;;;;;;;5.53;1.90;;;20.20;63.50;;;;;;4873946;28;95132;-88
2023/04/13 07:07:37;;;;;;;3.35;1.92;;;20.20;63.50;;;;;;4885413;28;92541;-88
2023/04/13 07:10:03;;;;;;;5.13;1.88;;;20.10;64.10;;;;;;4881547;28;92143;-90
2023/04/13 07:12:29;;;;;;;4.32;2.28;;;20.10;64.10;;;;;;4871602;28;94562;-89
2023/04/13 07:14:55;;;;;;;4.80;1.95;;;20.20;63.60;;;;;;4884125;28;92657;-88
2023/04/13 07:17:20;;;;;;;4.65;2.22;;;20.10;63.30;;;;;;4909880;28;92497;-88
2023/04/13 07:19:48;;;;;;;4.57;2.13;;;20.10;63.00;;;;;;4919354;28;91242;-89
2023/04/13 07:22:14;;;;;;;5.72;1.85;;;20.10;63.70;;;;;;4922243;28;93880;-87
2023/04/13 07:24:41;;;;;;;6.78;1.83;;;20.10;63.90;;;;;;4919522;28;94071;-90
2023/04/13 07:27:06;;;;;;;4.07;2.10;;;20.10;64.10;;;;;;4867656;28;93253;-87
2023/04/13 07:29:53;;;;;;;5.53;2.40;;;20.10;63.90;;;;;;4906176;28;92454;-88
2023/04/13 07:32:19;;;;;;;11.75;3.95;;;20.10;63.50;;;;;;4889979;28;93704;-90
2023/04/13 07:34:45;;;;;;;5.65;2.15;;;20.20;63.00;;;;;;4885861;28;95062;-90
2023/04/13 07:37:11;;;;;;;12.85;3.35;;;20.20;64.20;;;;;;4888092;28;92288;-86
2023/04/13 07:39:37;;;;;;;11.23;3.10;;;20.20;62.90;;;;;;4884778;28;92649;-88
2023/04/13 07:42:03;;;;;;;13.73;4.30;;;20.30;62.60;;;;;;4887841;28;95379;-91
2023/04/13 07:44:30;;;;;;;13.30;3.33;;;20.20;62.90;;;;;;4882441;28;96385;-87
2023/04/13 07:46:55;;;;;;;12.57;3.78;;;20.30;62.50;;;;;;4866286;28;92284;-90
2023/04/13 07:49:22;;;;;;;19.38;3.92;;;20.40;62.60;;;;;;4850068;28;94702;-87
2023/04/13 07:51:49;;;;;;;16.60;3.63;;;20.50;62.80;;;;;;4846233;28;94466;-88
2023/04/13 07:54:16;;;;;;;13.82;3.53;;;20.50;62.70;;;;;;4846671;28;97221;-86
2023/04/13 07:56:41;;;;;;;12.75;3.38;;;20.60;62.60;;;;;;4861934;28;92519;-88
2023/04/13 07:59:07;;;;;;;11.50;3.80;;;20.60;62.50;;;;;;4897602;28;92481;-88
2023/04/13 08:01:33;;;;;;;14.68;4.00;;;20.70;62.60;;;;;;4928722;28;95274;-86
2023/04/13 08:03:59;;;;;;;10.90;3.92;;;20.70;62.50;;;;;;4933744;28;93626;-87
2023/04/13 08:06:26;;;;;;;11.25;3.70;;;20.80;62.60;;;;;;4940889;28;92795;-86
2023/04/13 08:08:52;;;;;;;11.98;3.60;;;20.80;63.30;;;;;;4933128;28;91816;-85
2023/04/13 08:11:18;;;;;;;12.35;3.60;;;20.80;62.70;;;;;;4958662;28;93421;-86
2023/04/13 08:13:44;;;;;;;13.00;3.90;;;20.80;62.90;;;;;;4944940;28;93668;-87
2023/04/13 08:16:10;;;;;;;17.00;4.65;;;20.80;63.30;;;;;;4953516;28;93934;-90
2023/04/13 08:18:36;;;;;;;15.35;4.30;;;20.80;63.60;;;;;;4933637;28;92395;-87
2023/04/13 08:21:11;;;;;;;13.80;4.43;;;20.80;64.10;;;;;;4939480;28;93889;-87
2023/04/13 08:23:41;;;;;;;12.10;3.85;;;20.80;64.20;;;;;;4926292;28;92782;-89
2023/04/13 08:26:06;;;;;;;;;;;20.80;64.60;;;;;;4944290;28;93038;-89
2023/04/13 08:28:32;;;;;;;10.73;4.20;;;20.80;65.00;;;;;;4934728;28;92650;-88
2023/04/13 08:30:58;;;;;;;15.05;4.20;;;20.80;65.10;;;;;;4940679;28;92871;-88
2023/04/13 08:33:24;;;;;;;20.05;4.50;;;20.80;64.70;;;;;;4941864;28;95887;-89
2023/04/13 08:35:50;;;;;;;14.55;4.40;;;20.80;65.20;;;;;;4935579;28;92995;-88
2023/04/13 08:38:16;;;;;;;10.85;4.13;;;20.80;65.00;;;;;;4942624;28;92426;-88
2023/04/13 08:40:42;;;;;;;19.15;4.97;;;20.90;65.00;;;;;;4940203;28;93688;-89
2023/04/13 08:43:07;;;;;;;16.88;4.05;;;20.90;65.30;;;;;;4904459;28;94597;-89
2023/04/13 08:45:33;;;;;;;13.20;3.97;;;21.00;65.30;;;;;;4872835;28;92560;-88
2023/04/13 08:48:00;;;;;;;17.60;4.72;;;21.00;65.00;;;;;;4859705;28;92904;-88
2023/04/13 08:50:27;;;;;;;14.05;3.78;;;21.00;65.60;;;;;;4891359;28;94802;-90
2023/04/13 08:52:54;;;;;;;13.02;4.70;;;21.00;65.80;;;;;;4880574;28;94536;-89
2023/04/13 08:55:20;;;;;;;14.40;4.18;;;21.10;64.70;;;;;;4880789;28;92384;-88
2023/04/13 08:57:48;;;;;;;20.65;4.70;;;21.10;65.40;;;;;;4900146;28;91315;-88
2023/04/13 09:00:17;;;;;;;16.17;4.75;;;21.10;68.40;;;;;;4898448;28;94460;-88
2023/04/13 09:02:47;;;;;;;10.95;4.18;;;21.10;73.90;;;;;;4855916;28;93781;-91
2023/04/13 09:05:19;;;;;;;12.57;4.88;;;21.10;72.10;;;;;;4861142;28;93185;-90
2023/04/13 09:07:52;;;;;;;15.07;4.90;;;21.00;72.80;;;;;;4861868;28;93516;-90
2023/04/13 09:10:19;;;;;;;16.45;5.03;;;21.10;75.20;;;;;;4861077;28;93377;-87
2023/04/13 09:12:45;;;;;;;15.18;4.60;;;21.00;75.30;;;;;;4823768;29;94914;-88
2023/04/13 09:15:13;;;;;;;14.43;4.70;;;21.00;75.00;;;;;;4858059;28;92564;-91
2023/04/13 09:17:39;;;;;;;13.00;4.75;;;20.90;79.30;;;;;;4888410;28;92230;-88
2023/04/13 09:20:21;;;;;;;14.15;4.88;;;20.80;79.40;;;;;;4898703;28;95585;-92
2023/04/13 09:22:48;;;;;;;17.83;5.50;;;20.80;81.30;;;;;;4898115;28;95547;-90
2023/04/13 09:25:25;;;;;;;12.75;4.28;;;20.70;77.00;;;;;;4918707;28;92804;-89
2023/04/13 09:27:51;;;;;;;16.77;4.75;;;20.70;75.90;;;;;;4867056;28;92465;-87
2023/04/13 09:30:24;;;;;;;12.82;4.57;;;20.70;75.00;;;;;;4861005;28;94807;-92
2023/04/13 09:33:03;;;;;;;9.25;4.07;;;20.70;72.90;;;;;;4858276;28;95843;-89
2023/04/13 09:35:31;;;;;;;17.48;4.43;;;20.60;72.50;;;;;;4878327;28;92813;-93
2023/04/13 09:37:57;;;;;;;13.07;4.75;;;20.60;72.70;;;;;;4860441;28;92846;-90
2023/04/13 09:40:23;;;;;;;13.30;5.20;;;20.60;72.50;;;;;;4880239;28;94951;-89
2023/04/13 09:42:58;;;;;;;18.63;5.20;;;20.50;73.00;;;;;;4890164;28;92486;-90
2023/04/13 09:45:32;;;;;;;20.75;5.35;;;20.50;71.20;;;;;;4876570;28;92627;-91
2023/04/13 09:48:01;;;;;;;8.75;3.97;;;20.30;70.00;;;;;;4889656;28;91339;-89
2023/04/13 09:50:27;;;;;;;14.70;4.88;;;20.50;69.80;;;;;;4923120;28;94101;-90
2023/04/13 09:52:59;;;;;;;12.63;3.80;;;20.40;72.00;;;;;;4944495;28;92587;-87
2023/04/13 09:55:26;;;;;;;16.30;4.93;;;20.50;72.10;;;;;;4943952;28;93123;-87
2023/04/13 09:57:52;;;;;;;16.65;5.07;;;20.50;71.30;;;;;;4946307;28;93278;-87
2023/04/13 10:00:22;;;;;;;10.90;4.05;;;20.50;71.30;;;;;;4929442;28;94149;-90
2023/04/13 10:02:51;;;;;;;15.90;4.95;;;20.50;70.60;;;;;;4930572;28;97050;-88
2023/04/13 10:05:24;;;;;;;12.82;3.75;;;20.60;70.30;;;;;;4942109;28;92564;-89
2023/04/13 10:07:50;;;;;;;14.25;4.45;;;20.60;68.80;;;;;;4944664;28;92480;-87
2023/04/13 10:10:16;;;;;;;12.00;4.20;;;20.70;69.70;;;;;;4929218;28;94388;-87
2023/04/13 10:12:54;;;;;;;16.38;4.40;;;20.70;70.00;;;;;;4943866;28;94777;-87
2023/04/13 10:15:47;;;;;;;15.27;4.85;;;20.80;68.90;;;;;;4942273;28;93008;-87
2023/04/13 10:18:25;;;;;;;10.27;3.67;;;20.80;68.80;;;;;;4924941;28;92288;-88
2023/04/13 10:20:52;;;;;;;10.60;4.18;;;20.80;69.50;;;;;;4925155;28;95177;-85
2023/04/13 10:23:18;;;;;;;17.08;4.55;;;20.90;68.10;;;;;;4953759;28;94532;-86
2023/04/13 10:25:52;;;;;;;12.10;4.32;;;20.90;67.80;;;;;;4976930;28;92999;-91
2023/04/13 10:28:18;;;;;;;11.93;4.15;;;20.80;68.90;;;;;;4952883;28;92444;-87
2023/04/13 10:30:50;;;;;;;10.95;3.78;;;20.80;69.30;;;;;;4938277;28;93089;-88
2023/04/13 10:33:17;;;;;;;13.90;4.53;;;20.80;69.50;;;;;;4937554;28;94602;-89
2023/04/13 10:35:56;;;;;;;13.50;4.57;;;20.80;69.70;;;;;;4954152;28;92902;-86
2023/04/13 10:38:23;;;;;;;16.60;4.28;;;20.80;69.80;;;;;;4929431;28;91918;-89
2023/04/13 10:40:49;;;;;;;14.35;4.28;;;20.80;69.30;;;;;;4951499;28;93738;-88
2023/04/13 10:43:31;;;;;;;12.60;4.68;;;20.80;69.00;;;;;;4939025;28;93588;-87
2023/04/13 10:46:08;;;;;;;14.20;4.70;;;20.80;69.60;;;;;;4955854;28;93407;-88
2023/04/13 10:48:35;;;;;;;12.82;4.05;;;20.80;69.10;;;;;;4945653;28;92451;-91
2023/04/13 10:51:01;;;;;;;12.10;3.72;;;20.80;69.10;;;;;;4954257;28;94186;-88
2023/04/13 10:53:29;;;;;;;12.18;4.22;;;20.80;69.30;;;;;;4933262;28;93012;-88
2023/04/13 10:55:56;;;;;;;10.85;3.70;;;20.80;69.00;;;;;;4954674;28;92299;-89
2023/04/13 10:58:22;;;;;;;14.10;4.50;;;20.80;69.30;;;;;;4955760;28;92837;-88
2023/04/13 11:00:54;;;;;;;10.63;3.55;;;20.80;69.00;;;;;;4972670;28;96879;-86
2023/04/13 11:03:20;;;;;;;22.08;4.70;;;20.80;68.40;;;;;;4988612;28;93590;-87
2023/04/13 11:05:59;;;;;;;14.68;3.90;;;20.80;68.60;;;;;;4967768;28;92593;-86
2023/04/13 11:08:26;;;;;;;16.20;4.25;;;20.70;68.70;;;;;;4944716;28;95608;-88
2023/04/13 11:10:56;;;;;;;12.38;4.25;;;20.70;68.50;;;;;;4930209;28;96552;-88
2023/04/13 11:13:24;;;;;;;11.45;3.42;;;20.70;68.30;;;;;;4943590;28;93275;-87
2023/04/13 11:16:12;;;;;;;8.95;3.83;;;20.70;68.00;;;;;;4932964;28;92513;-87
2023/04/13 11:18:39;;;;;;;9.40;3.90;;;20.70;68.00;;;;;;4932381;28;93404;-88
2023/04/13 11:21:24;;;;;;;8.10;3.58;;;20.70;68.10;;;;;;4913591;28;93474;-89
2023/04/13 11:23:54;;;;;;;11.27;3.92;;;20.70;68.30;;;;;;4899213;28;95219;-88
2023/04/13 11:26:45;;;;;;;10.93;3.67;;;20.70;68.00;;;;;;4914202;28;92569;-88
2023/04/13 11:29:17;;;;;;;9.98;3.92;;;20.70;68.30;;;;;;4894684;28;91377;-90
2023/04/13 11:32:02;;;;;;;11.27;4.25;;;20.70;68.20;;;;;;4894745;28;93421;-90
2023/04/13 11:34:28;;;;;;;9.70;4.35;;;20.70;68.10;;;;;;4879068;28;94679;-90
2023/04/13 11:37:04;;;;;;;13.10;3.65;;;20.70;67.20;;;;;;4885033;28;93792;-88
2023/04/13 11:39:31;;;;;;;12.57;3.50;;;20.70;66.30;;;;;;4886428;28;92567;-91
2023/04/13 11:41:57;;;;;;;18.65;4.68;;;20.70;66.10;;;;;;4894870;28;95651;-87
2023/04/13 11:44:23;;;;;;;11.77;3.63;;;20.70;66.30;;;;;;4897075;28;93514;-90
2023/04/13 11:46:52;;;;;;;7.88;2.92;;;20.70;66.20;;;;;;4895009;28;92586;-91
2023/04/13 11:49:18;;;;;;;12.43;4.20;;;20.70;67.20;;;;;;4881086;28;92642;-93
2023/04/13 11:51:44;;;;;;;9.23;3.38;;;20.70;66.90;;;;;;4892476;28;95186;-88
2023/04/13 11:54:10;;;;;;;10.65;4.07;;;20.70;65.40;;;;;;4905543;28;94789;-93
2023/04/13 11:56:36;;;;;;;12.88;3.85;;;20.80;65.90;;;;;;4917051;28;92173;-86
2023/04/13 11:59:02;;;;;;;11.77;4.35;;;20.70;67.00;;;;;;4914054;28;92484;-90
2023/04/13 12:01:28;;;;;;;9.05;3.60;;;20.70;66.30;;;;;;4913543;28;96305;-88
2023/04/13 12:04:02;;;;;;;12.05;3.40;;;20.70;66.40;;;;;;4900976;28;94457;-88
2023/04/13 12:06:29;;;;;;;8.95;3.65;;;20.60;66.00;;;;;;4866322;28;92643;-89
2023/04/13 12:09:00;;;;;;;9.10;3.78;;;20.60;66.00;;;;;;4884613;28;92643;-92
2023/04/13 12:11:26;;;;;;;8.73;3.10;;;20.60;66.00;;;;;;4895530;28;95921;-87
2023/04/13 12:13:52;;;;;;;11.85;4.15;;;20.60;65.50;;;;;;4891517;28;94827;-88
2023/04/13 12:16:28;;;;;;;10.98;3.85;;;20.60;66.00;;;;;;4896551;28;92636;-89
2023/04/13 12:18:54;;;;;;;12.75;4.13;;;20.60;65.70;;;;;;4913308;28;91330;-88
2023/04/13 12:21:21;;;;;;;9.20;3.45;;;20.60;65.70;;;;;;4864292;28;96388;-90
2023/04/13 12:24:00;;;;;;;8.48;3.33;;;20.60;64.90;;;;;;4880805;28;94872;-88
2023/04/13 12:26:36;;;;;;;14.52;4.05;;;20.60;65.10;;;;;;4860291;28;93761;-87
2023/04/13 12:29:10;;;;;;;11.23;4.10;;;20.50;65.20;;;;;;4864063;28;92423;-88
2023/04/13 12:31:37;;;;;;;11.65;3.42;;;20.60;65.60;;;;;;4862207;28;94810;-87
2023/04/13 12:34:04;;;;;;;14.30;4.00;;;20.60;65.50;;;;;;4879656;28;93606;-89
2023/04/13 12:36:32;;;;;;;13.25;3.90;;;20.60;65.00;;;;;;4851019;28;92535;-92
2023/04/13 12:38:58;;;;;;;16.02;4.53;;;20.50;65.30;;;;;;4937224;28;92378;-89
2023/04/13 12:41:25;;;;;;;11.85;3.88;;;20.50;65.40;;;;;;4908373;28;96687;-89
2023/04/13 12:43:51;;;;;;;10.18;3.83;;;20.50;65.60;;;;;;4934787;28;96206;-88
2023/04/13 12:46:17;;;;;;;11.32;3.63;;;20.60;65.40;;;;;;4940667;28;92541;-86
2023/04/13 12:48:43;;;;;;;13.25;3.95;;;20.60;65.30;;;;;;4935896;28;92467;-85